createdAt,value
2023-04-19T00:04:48.037Z,12.80
2023-04-19T00:14:47.170Z,12.80
2023-04-19T00:24:45.986Z,12.90
2023-04-19T00:34:45.020Z,12.80
2023-04-19T00:44:44.095Z,12.70
2023-04-19T00:54:43.102Z,12.70
2023-04-19T01:04:42.283Z,12.70
2023-04-19T01:14:40.955Z,12.80
2023-04-19T01:24:40.077Z,12.80
2023-04-19T01:34:39.026Z,12.70
2023-04-19T01:44:37.897Z,12.60
2023-04-19T01:54:37.117Z,12.70
2023-04-19T02:04:38.930Z,12.70
2023-04-19T02:14:38.262Z,12.70
2023-04-19T02:24:37.428Z,12.60
2023-04-19T02:34:36.071Z,12.40
2023-04-19T02:44:35.109Z,12.10
2023-04-19T02:54:34.275Z,12.10
2023-04-19T03:04:34.701Z,11.90
2023-04-19T03:14:34.506Z,11.80
2023-04-19T03:24:37.564Z,11.80
2023-04-19T03:34:36.005Z,12.00
2023-04-19T03:44:37.229Z,12.00
2023-04-19T03:54:37.007Z,12.10
2023-04-19T04:04:36.270Z,12.10
2023-04-19T04:14:36.439Z,12.20
2023-04-19T04:24:38.877Z,12.20
2023-04-19T04:34:39.944Z,12.10
2023-04-19T04:44:42.870Z,12.00
2023-04-19T04:54:43.952Z,11.90
2023-04-19T05:04:44.073Z,12.00
2023-04-19T05:14:43.810Z,11.90
2023-04-19T05:24:43.822Z,11.90
2023-04-19T05:34:44.957Z,12.00
2023-04-19T05:44:44.581Z,12.10
2023-04-19T05:54:44.937Z,12.30
2023-04-19T06:04:45.283Z,12.40
2023-04-19T06:14:44.388Z,12.70
2023-04-19T06:24:43.324Z,12.70
2023-04-19T06:34:42.015Z,12.60
2023-04-19T06:44:41.119Z,12.60
2023-04-19T06:54:40.471Z,12.80
2023-04-19T07:04:39.421Z,13.00
2023-04-19T07:14:38.454Z,13.20
2023-04-19T07:24:39.270Z,13.70
2023-04-19T07:34:38.274Z,13.90
2023-04-19T07:44:37.075Z,13.90
2023-04-19T07:54:38.129Z,13.80
2023-04-19T08:04:37.634Z,14.10
2023-04-19T08:24:40.277Z,14.70
2023-04-19T08:34:39.123Z,14.90
2023-04-19T08:44:42.273Z,15.00
2023-04-19T08:54:39.386Z,15.20
2023-04-19T09:04:38.973Z,15.20
2023-04-19T09:14:38.992Z,15.30
2023-04-19T09:25:13.915Z,15.30
2023-04-19T09:34:40.253Z,15.50
2023-04-19T09:45:05.901Z,15.70
2023-04-19T09:54:40.198Z,15.50
2023-04-19T10:04:59.661Z,15.40
2023-04-19T10:14:40.224Z,15.40
2023-04-19T10:24:39.297Z,15.50
2023-04-19T10:34:38.359Z,15.90
2023-04-19T10:44:37.172Z,16.30
2023-04-19T10:54:37.310Z,16.40
2023-04-19T11:04:36.356Z,16.60
2023-04-19T11:14:35.240Z,16.70
2023-04-19T11:24:34.458Z,16.50
2023-04-19T11:34:33.605Z,16.40
2023-04-19T11:44:33.669Z,16.60
2023-04-19T11:54:32.412Z,16.90
2023-04-19T12:04:31.341Z,17.00
2023-04-19T12:14:31.122Z,16.70
2023-04-19T12:24:30.311Z,16.40
2023-04-19T12:34:29.227Z,16.80
2023-04-19T12:44:28.459Z,17.00
2023-04-19T12:54:27.380Z,16.90
2023-04-19T13:04:27.504Z,16.90
2023-04-19T13:14:26.455Z,16.90
2023-04-19T13:24:25.329Z,16.90
2023-04-19T13:34:24.738Z,17.20
2023-04-19T13:44:24.799Z,17.10
2023-04-19T13:54:23.365Z,17.20
2023-04-19T14:04:22.892Z,17.10
2023-04-19T14:14:22.439Z,16.90
2023-04-19T14:24:21.331Z,17.00
2023-04-19T14:34:20.301Z,17.00
2023-04-19T14:44:19.413Z,17.00
2023-04-19T14:54:18.372Z,16.70
2023-04-19T15:04:17.616Z,16.70
2023-04-19T15:14:19.669Z,16.70
2023-04-19T15:24:18.680Z,16.80
2023-04-19T15:34:17.542Z,16.80
2023-04-19T15:44:16.360Z,16.50
2023-04-19T15:54:15.947Z,16.30
2023-04-19T16:04:14.753Z,16.20
2023-04-19T16:14:13.487Z,16.10
2023-04-19T16:24:12.489Z,16.10
2023-04-19T16:34:11.533Z,16.10
2023-04-19T16:44:10.666Z,16.20
2023-04-19T16:54:09.625Z,17.10
2023-04-19T17:04:08.874Z,17.80
2023-04-19T17:14:07.498Z,19.30
2023-04-19T17:24:06.417Z,17.50
2023-04-19T17:34:05.540Z,17.40
2023-04-19T17:44:04.468Z,16.40
2023-04-19T17:54:03.450Z,15.80
2023-04-19T18:04:02.942Z,15.10
2023-04-19T18:14:01.461Z,14.40
2023-04-19T18:24:00.764Z,13.90
2023-04-19T18:33:59.538Z,13.60
2023-04-19T18:53:59.689Z,13.10
2023-04-19T19:04:24.031Z,12.80
2023-04-19T19:13:59.534Z,12.60
2023-04-19T19:23:59.058Z,12.50
2023-04-19T19:34:18.278Z,12.40
2023-04-19T19:43:58.818Z,12.20
2023-04-19T19:53:57.647Z,12.10
2023-04-19T20:03:56.962Z,12.00
2023-04-19T20:13:55.859Z,11.90
2023-04-19T20:23:54.771Z,11.70
2023-04-19T20:33:53.636Z,11.60
2023-04-19T20:43:52.648Z,11.40
2023-04-19T20:53:51.807Z,11.30
2023-04-19T21:03:50.943Z,11.20
2023-04-19T21:13:50.642Z,11.10
2023-04-19T21:23:49.669Z,11.00
2023-04-19T21:33:48.615Z,10.90
2023-04-19T21:43:47.791Z,10.80
2023-04-19T21:53:46.636Z,10.70
2023-04-19T22:03:46.555Z,10.50
2023-04-19T22:13:45.775Z,10.40
2023-04-19T22:23:44.774Z,10.30
2023-04-19T22:33:43.876Z,10.20
2023-04-19T22:43:42.880Z,10.10
2023-04-19T22:53:41.967Z,10.20
2023-04-19T23:03:40.779Z,10.10
2023-04-19T23:13:40.975Z,10.00
2023-04-19T23:23:39.871Z,9.90
2023-04-19T23:33:38.816Z,9.90
2023-04-19T23:43:37.837Z,9.90
2023-04-19T23:53:38.247Z,9.90
